createdAt,value
2019-06-01T00:00:13.751Z,19.00
2019-06-01T00:02:45.326Z,18.40
2019-06-01T00:05:14.116Z,18.00
2019-06-01T00:07:43.419Z,18.40
2019-06-01T00:10:13.147Z,18.50
2019-06-01T00:12:43.493Z,18.20
2019-06-01T00:15:13.028Z,17.90
2019-06-01T00:17:42.319Z,17.90
2019-06-01T00:20:11.839Z,17.60
2019-06-01T00:22:41.256Z,18.30
2019-06-01T00:25:10.591Z,18.60
2019-06-01T00:27:40.432Z,18.30
2019-06-01T00:30:10.087Z,18.60
2019-06-01T00:32:39.383Z,18.50
2019-06-01T00:35:08.723Z,19.30
2019-06-01T00:37:38.247Z,19.20
2019-06-01T00:40:08.729Z,19.00
2019-06-01T00:42:38.013Z,19.00
2019-06-01T00:45:09.204Z,20.20
2019-06-01T00:47:38.503Z,19.70
2019-06-01T00:50:08.219Z,19.70
2019-06-01T00:52:37.532Z,20.20
2019-06-01T00:55:06.973Z,20.50
2019-06-01T00:57:36.270Z,19.90
2019-06-01T01:00:07.769Z,19.80
2019-06-01T01:02:37.063Z,19.90
2019-06-01T01:05:17.224Z,20.20
2019-06-01T01:07:46.659Z,21.30
2019-06-01T01:10:16.511Z,20.60
2019-06-01T01:13:04.735Z,21.10
2019-06-01T01:15:34.755Z,20.20
2019-06-01T01:18:05.613Z,20.40
2019-06-01T01:20:36.038Z,21.20
2019-06-01T01:23:07.078Z,21.10
2019-06-01T01:25:36.820Z,21.50
2019-06-01T01:28:06.676Z,22.00
2019-06-01T01:30:36.289Z,21.70
2019-06-01T01:33:05.571Z,22.90
2019-06-01T01:35:35.015Z,23.10
2019-06-01T01:38:04.371Z,22.50
2019-06-01T01:40:33.666Z,22.60
2019-06-01T01:43:02.951Z,22.20
2019-06-01T01:45:32.226Z,22.70
2019-06-01T01:48:01.632Z,22.60
2019-06-01T01:50:30.969Z,22.70
2019-06-01T01:53:00.252Z,22.70
2019-06-01T01:55:29.569Z,22.70
2019-06-01T01:57:59.525Z,23.70
2019-06-01T02:00:38.034Z,23.70
2019-06-01T02:03:08.030Z,24.00
2019-06-01T02:05:37.864Z,25.00
2019-06-01T02:08:07.295Z,25.80
2019-06-01T02:10:36.871Z,24.60
2019-06-01T02:13:07.198Z,25.30
2019-06-01T02:15:37.645Z,24.60
2019-06-01T02:18:07.335Z,25.50
2019-06-01T02:20:36.938Z,25.70
2019-06-01T02:23:06.618Z,26.30
2019-06-01T02:25:36.567Z,26.80
2019-06-01T02:28:06.183Z,25.90
2019-06-01T02:30:35.471Z,26.30
2019-06-01T02:33:04.904Z,25.20
2019-06-01T02:35:34.189Z,25.20
2019-06-01T02:38:05.483Z,25.30
2019-06-01T02:40:34.589Z,25.00
2019-06-01T02:43:06.472Z,24.60
2019-06-01T02:45:35.116Z,25.20
2019-06-01T02:48:06.276Z,25.40
2019-06-01T02:50:35.965Z,25.60
2019-06-01T02:53:06.475Z,24.70
2019-06-01T02:55:36.169Z,24.80
2019-06-01T02:58:06.756Z,24.90
2019-06-01T03:00:47.855Z,24.80
2019-06-01T03:03:17.806Z,23.90
2019-06-01T03:05:48.058Z,24.40
2019-06-01T03:08:18.779Z,25.70
2019-06-01T03:10:49.917Z,26.00
2019-06-01T03:13:21.407Z,26.30
2019-06-01T03:15:53.843Z,26.10
2019-06-01T03:18:25.384Z,26.20
2019-06-01T03:20:56.676Z,26.30
2019-06-01T03:23:28.218Z,26.50
2019-06-01T03:25:59.801Z,27.30
2019-06-01T03:28:30.306Z,26.60
2019-06-01T03:31:01.158Z,25.90
2019-06-01T03:33:30.752Z,25.60
2019-06-01T03:36:00.728Z,26.00
2019-06-01T03:38:30.267Z,26.60
2019-06-01T03:40:59.963Z,27.20
2019-06-01T03:43:29.500Z,27.30
2019-06-01T03:45:58.785Z,27.20
2019-06-01T03:48:28.067Z,28.10
2019-06-01T03:50:57.435Z,27.40
2019-06-01T03:53:26.715Z,26.70
2019-06-01T03:55:56.347Z,27.70
2019-06-01T03:58:25.684Z,28.10
2019-06-01T04:00:55.265Z,28.60
2019-06-01T04:03:24.555Z,29.20
2019-06-01T04:05:53.832Z,29.50
2019-06-01T04:08:23.291Z,29.20
2019-06-01T04:10:52.575Z,28.80
2019-06-01T04:13:21.866Z,29.00
2019-06-01T04:15:51.199Z,28.80
2019-06-01T04:18:20.478Z,28.80
2019-06-01T04:20:49.779Z,29.00
2019-06-01T04:23:19.099Z,28.00
2019-06-01T04:25:48.394Z,29.30
2019-06-01T04:28:17.679Z,30.40
2019-06-01T04:30:46.954Z,29.30
2019-06-01T04:33:16.252Z,29.80
2019-06-01T04:35:45.784Z,30.00
2019-06-01T04:38:15.392Z,30.50
2019-06-01T04:40:44.658Z,30.70
2019-06-01T04:43:14.249Z,32.70
2019-06-01T04:45:43.805Z,33.20
2019-06-01T04:48:13.110Z,34.00
2019-06-01T04:50:42.392Z,34.00
2019-06-01T04:53:13.310Z,34.70
2019-06-01T04:55:43.150Z,34.10
2019-06-01T04:58:13.052Z,35.50
2019-06-01T05:00:42.422Z,35.70
2019-06-01T05:03:12.430Z,34.30
2019-06-01T05:05:42.779Z,35.60
2019-06-01T05:08:12.675Z,34.00
2019-06-01T05:10:43.271Z,33.60
2019-06-01T05:13:13.594Z,34.40
2019-06-01T05:15:42.916Z,36.10
2019-06-01T05:18:12.211Z,34.80
2019-06-01T05:20:43.070Z,34.30
2019-06-01T05:23:12.742Z,32.00
2019-06-01T05:25:42.090Z,33.40
2019-06-01T05:28:11.367Z,32.40
2019-06-01T05:30:41.039Z,33.20
2019-06-01T05:33:27.553Z,31.70
2019-06-01T05:35:41.306Z,31.80
2019-06-01T05:38:10.604Z,31.90
2019-06-01T05:40:40.187Z,30.00
2019-06-01T05:43:13.855Z,28.80
2019-06-01T05:45:40.456Z,27.30
2019-06-01T05:48:13.034Z,27.00
2019-06-01T05:50:40.748Z,26.90
2019-06-01T05:53:10.447Z,25.00
2019-06-01T05:55:39.916Z,25.30
2019-06-01T05:58:09.194Z,24.50
2019-06-01T06:00:43.073Z,25.80
2019-06-01T06:03:15.362Z,22.40
2019-06-01T06:05:43.375Z,23.00
2019-06-01T06:08:13.155Z,24.10
2019-06-01T06:10:43.682Z,23.40
2019-06-01T06:13:13.324Z,23.40
2019-06-01T06:15:42.806Z,22.10
2019-06-01T06:18:12.106Z,21.90
2019-06-01T06:20:41.427Z,21.40
2019-06-01T06:23:10.698Z,20.10
2019-06-01T06:25:41.441Z,19.40
2019-06-01T06:28:10.967Z,21.30
2019-06-01T06:30:40.250Z,18.70
2019-06-01T06:33:09.554Z,18.60
2019-06-01T06:35:38.833Z,19.60
2019-06-01T06:38:08.118Z,16.90
2019-06-01T06:40:37.389Z,18.20
2019-06-01T06:43:18.682Z,16.80
2019-06-01T06:45:37.658Z,16.20
2019-06-01T06:48:06.953Z,16.20
2019-06-01T06:50:36.227Z,17.00
2019-06-01T06:53:05.523Z,18.40
2019-06-01T06:55:35.594Z,16.60
2019-06-01T06:58:04.864Z,15.60
2019-06-01T07:00:34.257Z,14.80
2019-06-01T07:03:03.507Z,14.70
2019-06-01T07:05:32.810Z,15.40
2019-06-01T07:08:02.088Z,14.40
2019-06-01T07:10:31.383Z,13.50
2019-06-01T07:13:00.682Z,12.50
2019-06-01T07:15:29.964Z,14.00
2019-06-01T07:17:59.269Z,13.40
2019-06-01T07:20:28.551Z,13.40
2019-06-01T07:22:58.131Z,12.70
2019-06-01T07:25:27.430Z,13.60
2019-06-01T07:27:56.690Z,11.20
2019-06-01T07:30:26.363Z,12.30
2019-06-01T07:32:55.741Z,10.30
2019-06-01T07:35:25.039Z,9.20
2019-06-01T07:37:54.563Z,10.30
2019-06-01T07:40:24.785Z,10.50
2019-06-01T07:42:54.258Z,8.00
2019-06-01T07:45:24.772Z,6.80
2019-06-01T07:47:54.207Z,9.30
2019-06-01T07:50:23.948Z,8.00
2019-06-01T07:52:53.234Z,7.50
2019-06-01T07:55:23.542Z,4.90
2019-06-01T07:57:52.890Z,6.20
2019-06-01T08:00:24.029Z,6.40
2019-06-01T08:02:53.435Z,5.20
2019-06-01T08:05:23.780Z,5.30
2019-06-01T08:07:53.699Z,4.00
2019-06-01T08:10:24.453Z,4.80
2019-06-01T08:12:54.191Z,3.60
2019-06-01T08:15:23.613Z,4.30
2019-06-01T08:17:52.925Z,3.50
2019-06-01T08:20:23.871Z,5.20
2019-06-01T08:22:53.723Z,4.00
2019-06-01T08:25:24.206Z,5.20
2019-06-01T08:27:54.163Z,3.70
2019-06-01T08:30:24.399Z,3.80
2019-06-01T08:32:53.790Z,1.90
2019-06-01T08:35:23.059Z,4.10
2019-06-01T08:37:52.334Z,1.00
2019-06-01T08:40:21.629Z,1.70
2019-06-01T08:42:50.904Z,1.90
2019-06-01T08:45:20.183Z,1.00
2019-06-01T08:47:49.462Z,1.00
2019-06-01T08:50:19.303Z,1.00
2019-06-01T08:52:48.587Z,1.00
2019-06-01T08:55:18.328Z,1.00
2019-06-01T08:57:47.603Z,1.00
2019-06-01T09:00:17.210Z,1.00
2019-06-01T09:02:46.507Z,1.00
2019-06-01T09:05:24.195Z,1.00
2019-06-01T09:07:46.760Z,1.00
2019-06-01T09:10:16.188Z,1.00
2019-06-01T09:12:45.484Z,1.00
2019-06-01T09:15:15.104Z,1.00
2019-06-01T09:17:44.386Z,1.00
2019-06-01T09:20:14.087Z,1.00
2019-06-01T09:22:43.695Z,1.00
2019-06-01T09:25:13.308Z,1.00
2019-06-01T09:27:42.591Z,1.00
2019-06-01T09:30:12.307Z,1.00
2019-06-01T09:32:41.594Z,1.00
2019-06-01T09:35:11.332Z,1.00
2019-06-01T09:37:40.614Z,1.00
2019-06-01T09:40:10.630Z,1.00
2019-06-01T09:42:39.913Z,1.00
2019-06-01T09:45:09.652Z,1.00
2019-06-01T09:47:38.922Z,1.00
2019-06-01T09:50:08.644Z,1.00
2019-06-01T09:52:37.911Z,1.00
2019-06-01T09:55:07.740Z,1.00
2019-06-01T09:57:38.350Z,1.00
2019-06-01T10:00:10.201Z,1.00
2019-06-01T10:02:39.494Z,1.00
2019-06-01T10:05:08.827Z,1.00
2019-06-01T10:07:39.407Z,1.00
2019-06-01T10:10:09.619Z,1.00
2019-06-01T10:12:38.915Z,1.00
2019-06-01T10:15:09.629Z,1.00
2019-06-01T10:17:39.178Z,1.00
2019-06-01T10:20:10.039Z,1.00
2019-06-01T10:22:41.472Z,1.00
2019-06-01T10:25:11.474Z,1.00
2019-06-01T10:27:40.762Z,1.00
2019-06-01T10:30:10.783Z,1.00
2019-06-01T10:32:40.050Z,1.00
2019-06-01T10:35:10.180Z,1.00
2019-06-01T10:37:40.034Z,1.00
2019-06-01T10:40:10.246Z,1.00
2019-06-01T10:42:39.886Z,1.00
2019-06-01T10:45:09.849Z,1.00
2019-06-01T10:47:40.128Z,1.00
2019-06-01T10:50:09.995Z,1.00
2019-06-01T10:52:40.379Z,1.00
2019-06-01T10:55:10.126Z,1.00
2019-06-01T10:57:40.633Z,1.00
2019-06-01T11:00:11.795Z,1.00
2019-06-01T11:02:41.066Z,1.00
2019-06-01T11:05:10.538Z,1.00
2019-06-01T11:07:40.959Z,1.00
2019-06-01T11:10:11.244Z,1.00
2019-06-01T11:12:41.093Z,1.00
2019-06-01T11:15:11.927Z,1.00
2019-06-01T11:17:41.319Z,1.00
2019-06-01T11:20:10.728Z,1.00
2019-06-01T11:22:40.001Z,1.00
2019-06-01T11:25:09.947Z,1.00
2019-06-01T11:27:39.696Z,1.00
2019-06-01T11:30:09.827Z,1.00
2019-06-01T11:32:41.251Z,1.00
2019-06-01T11:35:10.620Z,1.00
2019-06-01T11:37:40.405Z,1.00
2019-06-01T11:40:10.398Z,1.00
2019-06-01T11:42:40.902Z,1.00
2019-06-01T11:45:11.526Z,1.00
2019-06-01T11:47:41.072Z,1.00
2019-06-01T11:50:10.822Z,1.00
2019-06-01T11:52:41.161Z,1.00
2019-06-01T11:55:11.698Z,1.00
2019-06-01T11:57:41.574Z,1.00
2019-06-01T12:00:15.689Z,1.00
2019-06-01T12:02:46.032Z,1.00
2019-06-01T12:05:15.870Z,1.00
2019-06-01T12:07:46.128Z,1.00
2019-06-01T12:10:15.764Z,1.00
2019-06-01T12:12:46.361Z,1.00
2019-06-01T12:15:15.905Z,1.00
2019-06-01T12:17:45.272Z,1.00
2019-06-01T12:20:14.824Z,1.00
2019-06-01T12:22:45.132Z,1.00
2019-06-01T12:25:14.645Z,1.00
2019-06-01T12:27:43.938Z,1.00
2019-06-01T12:30:13.786Z,1.00
2019-06-01T12:32:44.072Z,1.00
2019-06-01T12:35:13.667Z,1.00
2019-06-01T12:38:02.085Z,1.00
2019-06-01T12:40:14.547Z,1.00
2019-06-01T12:42:44.203Z,1.00
2019-06-01T12:45:22.412Z,1.00
2019-06-01T12:47:54.070Z,1.00
2019-06-01T12:50:20.248Z,1.00
2019-06-01T12:52:49.623Z,1.00
2019-06-01T12:55:19.181Z,1.00
2019-06-01T12:57:49.247Z,1.00
2019-06-01T13:00:18.893Z,1.00
2019-06-01T13:02:56.350Z,1.00
2019-06-01T13:05:19.288Z,1.00
2019-06-01T13:07:58.186Z,1.00
2019-06-01T13:10:19.697Z,1.00
2019-06-01T13:12:49.411Z,1.00
2019-06-01T13:15:19.600Z,1.00
2019-06-01T13:17:49.430Z,1.00
2019-06-01T13:20:19.251Z,1.00
2019-06-01T13:22:49.880Z,1.00
2019-06-01T13:25:19.505Z,1.00
2019-06-01T13:27:48.969Z,1.00
2019-06-01T13:30:18.363Z,1.00
2019-06-01T13:32:48.594Z,1.00
2019-06-01T13:35:18.095Z,1.00
2019-06-01T13:37:48.691Z,1.00
2019-06-01T13:40:18.310Z,1.00
2019-06-01T13:42:47.586Z,1.00
2019-06-01T13:45:17.180Z,1.00
2019-06-01T13:47:47.661Z,1.00
2019-06-01T13:50:17.575Z,1.00
2019-06-01T13:52:48.001Z,1.00
2019-06-01T13:55:17.424Z,1.00
2019-06-01T13:57:48.242Z,1.00
2019-06-01T14:00:29.791Z,1.00
2019-06-01T14:02:53.707Z,1.00
2019-06-01T14:05:20.090Z,1.00
2019-06-01T14:07:49.576Z,1.00
2019-06-01T14:10:18.986Z,1.00
2019-06-01T14:12:49.376Z,1.00
2019-06-01T14:15:19.128Z,1.00
2019-06-01T14:17:48.468Z,1.00
2019-06-01T14:20:17.774Z,1.00
2019-06-01T14:22:47.652Z,1.00
2019-06-01T14:25:17.355Z,1.00
2019-06-01T14:27:48.026Z,1.00
2019-06-01T14:30:17.949Z,1.00
2019-06-01T14:32:48.817Z,1.00
2019-06-01T14:35:18.197Z,1.00
2019-06-01T14:37:48.605Z,1.00
2019-06-01T14:40:18.182Z,1.00
2019-06-01T14:42:47.466Z,1.00
2019-06-01T14:45:17.087Z,1.00
2019-06-01T14:47:47.150Z,1.00
2019-06-01T14:50:17.119Z,1.00
2019-06-01T14:52:47.502Z,1.00
2019-06-01T14:55:17.059Z,1.00
2019-06-01T14:57:48.361Z,1.00
2019-06-01T15:00:17.742Z,1.00
2019-06-01T15:02:48.115Z,1.00
2019-06-01T15:05:18.053Z,1.00
2019-06-01T15:07:48.167Z,1.00
2019-06-01T15:10:17.938Z,1.00
2019-06-01T15:12:51.496Z,1.00
2019-06-01T15:15:18.446Z,1.00
2019-06-01T15:17:49.207Z,1.00
2019-06-01T15:20:18.771Z,1.00
2019-06-01T15:22:48.039Z,1.00
2019-06-01T15:25:17.333Z,1.00
2019-06-01T15:27:46.880Z,1.00
2019-06-01T15:30:16.599Z,1.00
2019-06-01T15:32:45.883Z,1.00
2019-06-01T15:35:16.306Z,1.00
2019-06-01T15:37:45.825Z,1.00
2019-06-01T15:40:15.243Z,1.00
2019-06-01T15:42:44.510Z,1.00
2019-06-01T15:45:14.435Z,1.00
2019-06-01T15:47:43.719Z,1.00
2019-06-01T15:50:14.633Z,1.00
2019-06-01T15:52:43.914Z,1.00
2019-06-01T15:55:14.439Z,1.00
2019-06-01T15:57:43.706Z,1.00
2019-06-01T16:00:13.768Z,1.00
2019-06-01T16:02:43.039Z,1.00
2019-06-01T16:05:12.864Z,1.00
2019-06-01T16:07:42.448Z,1.00
2019-06-01T16:10:12.274Z,1.00
2019-06-01T16:12:42.178Z,1.00
2019-06-01T16:15:12.083Z,1.00
2019-06-01T16:17:41.376Z,1.00
2019-06-01T16:20:12.431Z,1.00
2019-06-01T16:22:41.723Z,1.00
2019-06-01T16:25:11.646Z,1.00
2019-06-01T16:27:40.923Z,1.00
2019-06-01T16:30:11.142Z,1.00
2019-06-01T16:32:40.433Z,1.00
2019-06-01T16:35:10.081Z,1.00
2019-06-01T16:37:39.398Z,1.00
2019-06-01T16:40:10.577Z,1.00
2019-06-01T16:42:39.861Z,1.00
2019-06-01T16:45:09.991Z,1.00
2019-06-01T16:47:39.284Z,1.00
2019-06-01T16:50:09.584Z,1.00
2019-06-01T16:52:39.026Z,1.00
2019-06-01T16:55:10.612Z,1.00
2019-06-01T16:57:39.985Z,1.00
2019-06-01T17:00:12.393Z,1.00
2019-06-01T17:02:41.721Z,1.00
2019-06-01T17:05:11.876Z,1.00
2019-06-01T17:07:41.157Z,1.00
2019-06-01T17:10:24.849Z,1.00
2019-06-01T17:12:43.730Z,1.00
2019-06-01T17:15:13.947Z,1.00
2019-06-01T17:17:43.253Z,1.00
2019-06-01T17:20:48.910Z,1.00
2019-06-01T17:23:27.049Z,1.00
2019-06-01T17:25:49.214Z,1.00
2019-06-01T17:28:18.561Z,1.00
2019-06-01T17:30:47.861Z,1.00
2019-06-01T17:33:17.215Z,1.00
2019-06-01T17:35:46.506Z,1.00
2019-06-01T17:38:16.064Z,1.00
2019-06-01T17:40:45.420Z,1.00
2019-06-01T17:43:14.801Z,1.00
2019-06-01T17:45:44.152Z,1.00
2019-06-01T17:48:25.557Z,1.00
2019-06-01T17:50:44.785Z,1.00
2019-06-01T17:53:14.075Z,1.00
2019-06-01T17:55:43.646Z,1.00
2019-06-01T17:58:13.032Z,1.00
2019-06-01T18:00:42.467Z,1.00
2019-06-01T18:03:12.236Z,1.00
2019-06-01T18:05:41.687Z,1.00
2019-06-01T18:08:12.374Z,1.00
2019-06-01T18:10:53.365Z,1.00
2019-06-01T18:13:13.371Z,1.00
2019-06-01T18:15:42.679Z,1.00
2019-06-01T18:18:12.875Z,1.00
2019-06-01T18:20:42.462Z,1.00
2019-06-01T18:23:13.217Z,1.00
2019-06-01T18:25:42.873Z,1.00
2019-06-01T18:28:18.284Z,1.00
2019-06-01T18:30:43.146Z,1.00
2019-06-01T18:33:13.181Z,1.00
2019-06-01T18:35:42.563Z,1.00
2019-06-01T18:38:13.024Z,1.00
2019-06-01T18:40:43.107Z,1.00
2019-06-01T18:43:15.474Z,1.00
2019-06-01T18:45:46.092Z,1.00
2019-06-01T18:48:17.614Z,1.00
2019-06-01T18:50:47.535Z,1.00
2019-06-01T18:53:16.984Z,1.00
2019-06-01T18:55:46.267Z,1.00
2019-06-01T18:58:15.543Z,1.00
2019-06-01T19:00:44.912Z,1.00
2019-06-01T19:03:15.527Z,1.00
2019-06-01T19:05:45.118Z,1.00
2019-06-01T19:08:15.909Z,1.00
2019-06-01T19:10:45.617Z,1.00
2019-06-01T19:13:15.916Z,1.00
2019-06-01T19:15:45.707Z,1.00
2019-06-01T19:18:16.771Z,1.00
2019-06-01T19:20:46.519Z,1.00
2019-06-01T19:23:20.365Z,1.00
2019-06-01T19:25:46.882Z,1.00
2019-06-01T19:28:17.477Z,1.00
2019-06-01T19:30:47.219Z,1.00
2019-06-01T19:33:18.945Z,1.00
2019-06-01T19:35:48.372Z,1.00
2019-06-01T19:38:19.304Z,1.00
2019-06-01T19:40:48.617Z,1.00
2019-06-01T19:43:17.896Z,1.00
2019-06-01T19:45:47.242Z,1.00
2019-06-01T19:48:16.808Z,1.30
2019-06-01T19:50:46.262Z,2.00
2019-06-01T19:53:16.700Z,1.60
2019-06-01T19:55:46.233Z,1.70
2019-06-01T19:58:16.264Z,1.90
2019-06-01T20:00:45.765Z,2.70
2019-06-01T20:03:19.024Z,2.70
2019-06-01T20:05:46.082Z,3.00
2019-06-01T20:08:16.250Z,2.60
2019-06-01T20:10:45.577Z,2.50
2019-06-01T20:13:15.272Z,2.50
2019-06-01T20:15:44.929Z,3.20
2019-06-01T20:18:14.795Z,3.00
2019-06-01T20:20:44.531Z,3.30
2019-06-01T20:23:15.280Z,3.90
2019-06-01T20:25:44.775Z,3.90
2019-06-01T20:28:15.265Z,4.50
2019-06-01T20:30:44.904Z,4.50
2019-06-01T20:33:14.268Z,4.30
2019-06-01T20:35:43.539Z,5.30
2019-06-01T20:38:14.284Z,4.80
2019-06-01T20:40:43.812Z,4.90
2019-06-01T20:43:14.533Z,5.20
2019-06-01T20:45:44.100Z,5.40
2019-06-01T20:48:14.872Z,5.70
2019-06-01T20:50:44.453Z,5.60
2019-06-01T20:53:14.838Z,6.20
2019-06-01T20:55:44.196Z,6.30
2019-06-01T20:58:13.873Z,6.70
2019-06-01T21:00:43.588Z,6.30
2019-06-01T21:03:13.732Z,6.70
2019-06-01T21:05:43.044Z,6.50
2019-06-01T21:08:13.874Z,6.90
2019-06-01T21:10:43.299Z,6.90
2019-06-01T21:13:14.048Z,7.30
2019-06-01T21:15:43.438Z,7.50
2019-06-01T21:18:14.179Z,7.30
2019-06-01T21:20:43.759Z,7.60
2019-06-01T21:23:14.332Z,7.70
2019-06-01T21:25:43.963Z,8.10
2019-06-01T21:28:14.840Z,7.90
2019-06-01T21:30:44.321Z,7.80
2019-06-01T21:33:14.922Z,7.80
2019-06-01T21:35:44.355Z,7.90
2019-06-01T21:38:13.647Z,8.70
2019-06-01T21:40:42.919Z,7.90
2019-06-01T21:43:23.838Z,7.80
2019-06-01T21:45:44.143Z,8.00
2019-06-01T21:48:13.447Z,8.00
2019-06-01T21:50:42.740Z,8.60
2019-06-01T21:53:12.071Z,8.70
2019-06-01T21:55:41.431Z,8.90
2019-06-01T21:58:10.805Z,8.90
2019-06-01T22:00:40.707Z,8.70
2019-06-01T22:03:10.150Z,8.80
2019-06-01T22:05:39.562Z,8.80
2019-06-01T22:08:08.882Z,9.60
2019-06-01T22:10:38.174Z,9.30
2019-06-01T22:13:18.246Z,9.80
2019-06-01T22:15:38.684Z,9.90
2019-06-01T22:18:07.950Z,9.50
2019-06-01T22:20:37.307Z,9.60
2019-06-01T22:23:06.602Z,9.90
2019-06-01T22:25:36.199Z,10.30
2019-06-01T22:28:05.662Z,10.90
2019-06-01T22:30:34.970Z,11.80
2019-06-01T22:33:04.348Z,11.00
2019-06-01T22:35:33.908Z,11.10
2019-06-01T22:38:03.207Z,11.10
2019-06-01T22:40:32.510Z,11.80
2019-06-01T22:43:01.782Z,11.70
2019-06-01T22:45:31.092Z,12.30
2019-06-01T22:48:00.448Z,12.90
2019-06-01T22:50:29.722Z,13.00
2019-06-01T22:52:59.015Z,12.10
2019-06-01T22:55:28.484Z,12.40
2019-06-01T22:57:58.174Z,11.60
2019-06-01T23:00:27.832Z,12.60
2019-06-01T23:02:57.220Z,12.60
2019-06-01T23:05:27.034Z,14.00
2019-06-01T23:07:56.501Z,12.30
2019-06-01T23:10:29.963Z,13.50
2019-06-01T23:12:57.008Z,14.40
2019-06-01T23:15:27.840Z,14.30
2019-06-01T23:17:57.358Z,13.10
2019-06-01T23:20:27.662Z,13.80
2019-06-01T23:22:57.219Z,14.20
2019-06-01T23:25:26.507Z,14.40
2019-06-01T23:27:56.162Z,14.40
2019-06-01T23:30:26.307Z,14.20
2019-06-01T23:32:55.715Z,14.70
2019-06-01T23:35:25.015Z,14.50
2019-06-01T23:37:54.312Z,14.60
2019-06-01T23:40:24.441Z,14.60
2019-06-01T23:42:53.796Z,14.70
2019-06-01T23:45:23.093Z,14.90
2019-06-01T23:47:52.372Z,14.80
2019-06-01T23:50:22.983Z,15.10
2019-06-01T23:52:52.318Z,14.80
2019-06-01T23:55:21.615Z,15.00
2019-06-01T23:57:51.178Z,15.90
